Time;durP1;ratioP1;P1;durP2;ratioP2;P2;SDS_P1;SDS_P2;PMS_P1;PMS_P2;Temp;Humidity;BMP_temperature;BMP_pressure;BME280_temperature;BME280_humidity;BME280_pressure;Samples;Min_cycle;Max_cycle;Signal;HPM_P1;HPM_P2
2022/11/25 00:02:06;;;;;;;39.92;19.98;;;;;;;3.99;100.00;100393.94;5049360;28;20027;-73
2022/11/25 00:04:35;;;;;;;38.75;20.95;;;;;;;3.89;100.00;100390.16;5049652;28;20060;-64
2022/11/25 00:07:02;;;;;;;35.38;20.00;;;;;;;3.92;100.00;100391.75;5049384;28;20039;-64
2022/11/25 00:09:27;;;;;;;39.28;21.25;;;;;;;4.00;100.00;100410.75;5049825;28;20037;-64
2022/11/25 00:11:52;;;;;;;38.05;20.20;;;;;;;3.98;100.00;100399.34;5049796;28;20028;-64
2022/11/25 00:14:18;;;;;;;38.00;20.15;;;;;;;3.82;100.00;100383.50;5049359;28;20036;-64
2022/11/25 00:16:43;;;;;;;37.65;20.55;;;;;;;3.90;100.00;100409.59;5067513;28;20034;-64
2022/11/25 00:19:10;;;;;;;41.83;20.83;;;;;;;3.85;100.00;100408.97;5069315;28;20040;-64
2022/11/25 00:21:35;;;;;;;34.78;19.33;;;;;;;3.83;100.00;100401.13;5069410;28;20050;-65
2022/11/25 00:24:04;;;;;;;34.83;20.15;;;;;;;4.05;100.00;100408.66;5068035;28;20024;-64
2022/11/25 00:26:33;;;;;;;39.65;20.55;;;;;;;4.17;100.00;100402.63;5069409;28;20436;-64
2022/11/25 00:29:01;;;;;;;39.95;22.02;;;;;;;4.19;100.00;100413.97;5069282;28;20036;-64
2022/11/25 00:31:32;;;;;;;34.70;20.00;;;;;;;3.85;100.00;100382.44;5069460;28;20063;-64
2022/11/25 00:33:58;;;;;;;39.45;19.83;;;;;;;3.99;100.00;100398.41;5068930;28;20117;-64
2022/11/25 00:36:31;;;;;;;39.08;19.85;;;;;;;4.03;100.00;100403.44;5067992;28;20527;-65
2022/11/25 00:39:18;;;;;;;34.55;19.45;;;;;;;4.08;100.00;100404.03;5058512;28;20504;-65
2022/11/25 00:44:36;;;;;;;34.20;20.23;;;;;;;4.07;100.00;100418.22;5068795;28;20063;-64
2022/11/25 00:47:17;;;;;;;34.80;19.50;;;;;;;4.01;100.00;100431.00;5054630;28;20028;-64
2022/11/25 00:49:47;;;;;;;34.85;20.00;;;;;;;4.06;100.00;100410.34;5068522;28;20115;-64
2022/11/25 00:52:25;;;;;;;34.22;19.92;;;;;;;4.06;100.00;100418.31;5067246;28;20020;-64
2022/11/25 00:54:51;;;;;;;32.72;20.45;;;;;;;4.14;100.00;100413.41;5068449;28;20127;-64
2022/11/25 00:57:21;;;;;;;35.03;19.85;;;;;;;4.23;100.00;100434.09;5067229;28;20044;-64
2022/11/25 00:59:47;;;;;;;34.03;20.70;;;;;;;4.12;100.00;100433.88;5068557;28;20028;-64
2022/11/25 01:02:15;;;;;;;35.42;20.33;;;;;;;4.18;100.00;100438.81;5066883;28;20016;-64
2022/11/25 01:04:40;;;;;;;37.85;21.98;;;;;;;4.17;100.00;100442.44;5067110;28;20020;-64
2022/11/25 01:07:06;;;;;;;33.85;19.95;;;;;;;4.12;100.00;100449.78;5068170;28;20043;-64
2022/11/25 01:09:31;;;;;;;33.00;19.90;;;;;;;4.00;100.00;100438.09;5068342;28;20555;-64
2022/11/25 01:11:57;;;;;;;32.67;19.35;;;;;;;3.84;100.00;100425.84;5067909;28;20115;-64
2022/11/25 01:14:23;;;;;;;36.10;20.60;;;;;;;3.99;100.00;100447.03;5048760;28;20025;-64
2022/11/25 01:16:49;;;;;;;35.42;20.77;;;;;;;3.99;100.00;100454.13;5058504;28;20040;-64
2022/11/25 01:19:15;;;;;;;35.47;21.08;;;;;;;3.97;100.00;100454.19;5068567;28;20081;-64
2022/11/25 01:21:41;;;;;;;34.15;19.80;;;;;;;3.93;100.00;100459.78;5067114;28;20080;-64
2022/11/25 01:24:07;;;;;;;31.67;19.88;;;;;;;3.86;100.00;100453.13;5068096;28;20079;-64
2022/11/25 01:26:34;;;;;;;35.45;20.45;;;;;;;3.72;100.00;100446.00;5068428;28;20540;-64
2022/11/25 01:29:03;;;;;;;32.83;19.45;;;;;;;3.83;100.00;100462.13;5068643;28;20492;-72
2022/11/25 01:31:31;;;;;;;31.20;20.63;;;;;;;3.97;100.00;100454.19;5068985;28;20020;-72
2022/11/25 01:34:11;;;;;;;36.90;20.83;;;;;;;3.97;100.00;100456.84;5068987;28;20070;-73
2022/11/25 01:36:37;;;;;;;34.72;19.60;;;;;;;4.03;100.00;100453.00;5068084;28;20117;-64
2022/11/25 01:39:03;;;;;;;31.65;19.40;;;;;;;3.95;100.00;100457.91;5067529;28;20036;-64
2022/11/25 01:41:30;;;;;;;33.75;19.13;;;;;;;4.02;100.00;100445.97;5067928;28;20085;-64
2022/11/25 01:44:12;;;;;;;36.70;20.15;;;;;;;4.05;100.00;100451.09;5067636;28;20032;-64
2022/11/25 01:47:00;;;;;;;35.58;20.48;;;;;;;4.11;100.00;100456.06;5067734;28;20099;-64
2022/11/25 01:49:33;;;;;;;32.33;19.33;;;;;;;4.01;100.00;100457.53;5067983;28;20048;-64
2022/11/25 01:52:04;;;;;;;31.98;19.75;;;;;;;3.77;100.00;100449.22;5067548;28;20103;-64
2022/11/25 01:54:38;;;;;;;33.38;19.67;;;;;;;3.87;100.00;100465.47;5065599;28;20028;-64
2022/11/25 01:57:19;;;;;;;33.03;20.02;;;;;;;3.62;100.00;100449.25;5067884;28;20082;-64
2022/11/25 01:59:49;;;;;;;30.95;18.85;;;;;;;3.54;100.00;100448.81;5067795;28;20039;-64
2022/11/25 02:02:16;;;;;;;32.70;19.95;;;;;;;3.56;100.00;100455.75;5067277;28;20032;-64
2022/11/25 02:04:43;;;;;;;33.33;20.27;;;;;;;3.45;100.00;100446.72;5067651;28;20039;-64
2022/11/25 02:07:14;;;;;;;33.35;20.48;;;;;;;3.48;100.00;100463.28;5067403;28;20120;-64
2022/11/25 02:09:42;;;;;;;35.75;20.60;;;;;;;3.34;100.00;100441.16;5067542;28;20045;-64
2022/11/25 02:12:08;;;;;;;37.15;20.55;;;;;;;3.36;100.00;100452.53;5067258;28;20650;-64
2022/11/25 02:14:34;;;;;;;36.30;19.92;;;;;;;3.39;100.00;100470.91;5067498;28;20461;-64
2022/11/25 02:17:01;;;;;;;33.20;20.08;;;;;;;3.32;100.00;100473.03;5066633;28;20060;-64
2022/11/25 02:20:02;;;;;;;31.35;19.55;;;;;;;3.23;100.00;100473.56;5066929;28;20460;-65
2022/11/25 02:22:44;;;;;;;29.38;17.77;;;;;;;3.08;100.00;100473.53;5056508;28;20049;-65
2022/11/25 02:25:18;;;;;;;31.23;18.60;;;;;;;3.00;100.00;100471.31;5066980;28;20032;-64
2022/11/25 02:27:46;;;;;;;32.83;18.58;;;;;;;2.96;100.00;100484.81;5067424;28;20447;-64
2022/11/25 02:30:12;;;;;;;35.63;20.83;;;;;;;2.70;100.00;100453.59;5065728;28;20032;-64
2022/11/25 02:32:48;;;;;;;36.22;19.65;;;;;;;2.83;100.00;100489.91;5065719;28;20488;-64
2022/11/25 02:35:27;;;;;;;40.13;20.92;;;;;;;2.70;100.00;100472.97;5065662;28;20039;-64
2022/11/25 02:37:58;;;;;;;44.97;21.50;;;;;;;2.62;100.00;100474.31;5067298;28;20056;-64
2022/11/25 02:40:25;;;;;;;43.83;21.33;;;;;;;2.49;100.00;100468.81;5067245;28;20032;-64
2022/11/25 02:42:52;;;;;;;45.97;23.42;;;;;;;2.51;100.00;100485.47;5068121;28;20028;-73
2022/11/25 02:45:25;;;;;;;40.72;21.10;;;;;;;2.50;100.00;100494.34;5067590;28;20110;-72
2022/11/25 02:47:50;;;;;;;52.40;23.23;;;;;;;2.47;100.00;100502.44;5066275;28;20115;-72
2022/11/25 02:50:16;;;;;;;47.63;23.58;;;;;;;2.34;100.00;100490.78;5066362;28;20349;-72
2022/11/25 02:52:41;;;;;;;44.80;22.70;;;;;;;2.31;100.00;100490.94;5067314;28;20737;-72
2022/11/25 02:55:07;;;;;;;50.85;22.85;;;;;;;2.30;100.00;100497.16;5066923;28;20028;-72
2022/11/25 02:57:33;;;;;;;47.05;23.15;;;;;;;2.30;100.00;100505.94;5066491;28;20068;-72
2022/11/25 02:59:58;;;;;;;53.20;26.38;;;;;;;2.33;100.00;100504.94;5070520;28;20354;-65
2022/11/25 03:02:23;;;;;;;53.63;26.08;;;;;;;2.38;100.00;100505.56;5069617;28;20104;-72
2022/11/25 03:04:49;;;;;;;45.58;24.00;;;;;;;2.27;100.00;100492.91;5071708;28;20028;-72
2022/11/25 03:07:14;;;;;;;45.20;23.63;;;;;;;2.32;100.00;100509.38;5071468;28;20052;-72
2022/11/25 03:09:40;;;;;;;46.05;23.75;;;;;;;2.26;100.00;100492.97;5070344;28;20427;-72
2022/11/25 03:12:20;;;;;;;42.55;23.52;;;;;;;2.35;100.00;100514.50;5070049;28;20039;-72
2022/11/25 03:14:47;;;;;;;40.40;23.13;;;;;;;2.37;100.00;100509.16;5070609;28;20739;-72
2022/11/25 03:17:13;;;;;;;42.70;22.48;;;;;;;2.43;100.00;100514.97;5071375;28;20111;-72
2022/11/25 03:19:39;;;;;;;39.10;23.00;;;;;;;2.43;100.00;100520.25;5071296;28;20062;-72
2022/11/25 03:22:04;;;;;;;40.90;23.77;;;;;;;2.39;100.00;100515.22;5070360;28;20447;-72
2022/11/25 03:24:31;;;;;;;37.00;23.10;;;;;;;2.46;100.00;100531.63;5071209;28;20113;-72
2022/11/25 03:26:56;;;;;;;37.05;21.75;;;;;;;2.46;100.00;100532.50;5069454;28;20082;-72
2022/11/25 03:29:22;;;;;;;37.10;21.30;;;;;;;2.45;100.00;100532.56;5069864;28;20051;-71
2022/11/25 03:31:47;;;;;;;38.13;22.35;;;;;;;2.42;100.00;100532.72;5051147;28;20067;-71
2022/11/25 03:34:13;;;;;;;35.33;21.63;;;;;;;2.39;100.00;100545.16;5066554;28;20020;-71
2022/11/25 03:36:38;;;;;;;38.63;21.25;;;;;;;2.26;100.00;100525.56;5071228;28;20032;-72
2022/11/25 03:39:03;;;;;;;35.25;20.90;;;;;;;2.27;100.00;100531.72;5070768;28;20098;-71
2022/11/25 03:41:29;;;;;;;39.63;21.45;;;;;;;2.28;100.00;100546.66;5070952;28;20033;-71
2022/11/25 03:43:54;;;;;;;35.58;20.25;;;;;;;2.24;100.00;100548.63;5071426;28;20036;-70
2022/11/25 03:46:20;;;;;;;34.50;20.98;;;;;;;2.14;100.00;100535.91;5070918;28;20028;-71
2022/11/25 03:48:45;;;;;;;35.65;20.83;;;;;;;2.16;100.00;100534.06;5070985;28;20040;-71
2022/11/25 03:51:11;;;;;;;37.17;20.92;;;;;;;2.15;100.00;100551.72;5070296;28;20023;-71
2022/11/25 03:53:36;;;;;;;34.85;20.70;;;;;;;2.12;100.00;100543.94;5070297;28;20041;-72
2022/11/25 03:56:02;;;;;;;31.85;20.02;;;;;;;2.09;100.00;100553.78;5070482;28;20036;-72
2022/11/25 03:58:27;;;;;;;36.88;21.00;;;;;;;2.01;100.00;100551.56;5070683;28;21106;-71
2022/11/25 04:00:53;;;;;;;33.60;19.85;;;;;;;2.00;100.00;100560.41;5070911;28;20048;-71
2022/11/25 04:03:18;;;;;;;35.50;21.50;;;;;;;2.00;100.00;100565.69;5070596;28;20039;-71
2022/11/25 04:05:44;;;;;;;36.88;21.65;;;;;;;1.91;100.00;100555.56;5070288;28;20095;-71
2022/11/25 04:08:09;;;;;;;36.92;21.40;;;;;;;1.96;100.00;100564.13;5070085;28;20566;-71
2022/11/25 04:10:35;;;;;;;36.28;22.33;;;;;;;1.97;100.00;100584.34;5070186;28;20381;-72
2022/11/25 04:13:00;;;;;;;37.40;23.23;;;;;;;2.05;100.00;100568.09;5070143;28;20017;-64
2022/11/25 04:15:25;;;;;;;37.75;23.52;;;;;;;2.12;100.00;100558.94;5068371;28;20158;-64
2022/11/25 04:17:51;;;;;;;40.05;22.35;;;;;;;2.24;100.00;100568.91;5069053;28;20392;-64
2022/11/25 04:20:16;;;;;;;37.83;22.25;;;;;;;2.17;100.00;100567.50;5069609;28;20028;-65
2022/11/25 04:22:42;;;;;;;36.80;21.73;;;;;;;2.18;100.00;100566.56;5069750;28;20052;-64
2022/11/25 04:25:08;;;;;;;36.25;21.25;;;;;;;2.12;100.00;100565.09;5067997;28;20024;-64
2022/11/25 04:27:33;;;;;;;37.53;21.70;;;;;;;2.08;100.00;100566.19;5069445;28;20081;-71
2022/11/25 04:29:59;;;;;;;35.75;21.90;;;;;;;1.97;100.00;100560.53;5070310;28;20020;-71
2022/11/25 04:32:24;;;;;;;39.05;21.92;;;;;;;1.99;100.00;100574.56;5068413;28;20033;-71
2022/11/25 04:34:50;;;;;;;38.13;22.48;;;;;;;1.97;100.00;100573.78;5068083;28;20055;-71
2022/11/25 04:37:15;;;;;;;36.22;22.10;;;;;;;1.92;100.00;100581.09;5069815;28;20563;-71
2022/11/25 04:39:41;;;;;;;35.05;20.15;;;;;;;1.86;100.00;100586.66;5069104;28;20388;-71
2022/11/25 04:44:50;;;;;;;34.25;20.20;;;;;;;1.76;100.00;100597.75;5069567;28;20063;-71
2022/11/25 04:47:16;;;;;;;37.25;22.00;;;;;;;1.71;100.00;100600.59;5068123;28;20040;-71
2022/11/25 04:49:41;;;;;;;37.70;20.95;;;;;;;1.67;100.00;100596.41;5063807;28;20033;-71
2022/11/25 04:52:07;;;;;;;37.58;21.70;;;;;;;1.56;100.00;100601.34;5060701;28;20024;-71
2022/11/25 04:54:32;;;;;;;38.30;22.05;;;;;;;1.56;100.00;100605.75;5061245;28;20048;-71
2022/11/25 04:56:58;;;;;;;33.35;20.13;;;;;;;1.54;100.00;100612.91;5059797;28;20036;-72
2022/11/25 04:59:38;;;;;;;37.85;20.13;;;;;;;1.48;100.00;100607.91;5054936;28;20466;-71
2022/11/25 05:02:24;;;;;;;36.10;20.48;;;;;;;1.34;100.00;100605.03;5059647;28;20086;-71
2022/11/25 05:04:51;;;;;;;36.65;19.98;;;;;;;1.42;100.00;100634.63;5049892;28;20102;-71
2022/11/25 05:07:18;;;;;;;40.72;21.42;;;;;;;1.35;100.00;100634.03;5055529;28;20717;-71
2022/11/25 05:09:44;;;;;;;37.35;21.77;;;;;;;1.36;100.00;100645.47;5057254;28;20040;-71
2022/11/25 05:12:13;;;;;;;37.50;20.83;;;;;;;1.33;100.00;100642.97;5059999;28;20086;-71
2022/11/25 05:14:38;;;;;;;40.17;21.45;;;;;;;1.26;100.00;100638.88;5057486;28;20032;-70
2022/11/25 05:17:06;;;;;;;39.25;21.35;;;;;;;1.21;100.00;100630.28;5058687;28;20098;-71
2022/11/25 05:19:32;;;;;;;37.47;21.38;;;;;;;1.26;100.00;100647.63;5062464;28;20032;-71
2022/11/25 05:21:58;;;;;;;37.75;22.52;;;;;;;1.24;100.00;100646.88;5058367;28;20031;-71
2022/11/25 05:24:25;;;;;;;41.15;25.00;;;;;;;1.28;100.00;100659.00;5051149;28;20040;-71
2022/11/25 05:26:50;;;;;;;44.25;24.63;;;;;;;1.29;100.00;100659.88;5063345;28;20031;-71
2022/11/25 05:29:16;;;;;;;49.40;26.65;;;;;;;1.29;100.00;100655.44;5055755;28;20032;-71
2022/11/25 05:31:41;;;;;;;49.45;26.33;;;;;;;1.36;100.00;100671.88;5061419;28;20056;-71
2022/11/25 05:34:07;;;;;;;51.47;25.52;;;;;;;1.39;100.00;100675.22;5059542;28;20024;-71
2022/11/25 05:36:32;;;;;;;45.03;24.45;;;;;;;1.42;100.00;100677.72;5056448;28;20032;-71
2022/11/25 05:38:58;;;;;;;44.38;25.08;;;;;;;1.48;100.00;100688.03;5060537;28;20028;-70
2022/11/25 05:41:24;;;;;;;45.25;24.75;;;;;;;1.44;100.00;100670.59;5067338;28;20079;-71
2022/11/25 05:43:49;;;;;;;43.08;25.30;;;;;;;1.47;100.00;100670.47;5067887;28;20064;-69
2022/11/25 05:46:15;;;;;;;47.22;25.83;;;;;;;1.35;100.00;100646.41;5065696;28;20123;-70
2022/11/25 05:48:40;;;;;;;47.45;25.58;;;;;;;1.50;100.00;100680.91;5047552;28;20549;-71
2022/11/25 05:51:07;;;;;;;44.97;26.13;;;;;;;1.47;100.00;100686.31;5048896;28;20028;-70
2022/11/25 05:53:34;;;;;;;46.45;27.70;;;;;;;1.48;100.00;100680.09;5047706;28;20017;-70
2022/11/25 05:56:01;;;;;;;47.80;27.67;;;;;;;1.51;100.00;100690.53;5049325;28;20065;-71
2022/11/25 05:58:28;;;;;;;51.58;27.88;;;;;;;1.66;100.00;100705.72;5047538;28;20029;-70
2022/11/25 06:00:55;;;;;;;45.88;26.15;;;;;;;1.64;100.00;100699.63;5049052;28;20025;-71
2022/11/25 06:03:24;;;;;;;45.67;25.83;;;;;;;1.58;100.00;100709.63;5052883;28;20074;-70
2022/11/25 06:05:49;;;;;;;47.05;25.15;;;;;;;1.52;100.00;100709.91;5069005;28;20601;-70
2022/11/25 06:08:15;;;;;;;46.08;25.35;;;;;;;1.47;100.00;100719.81;5067046;28;20025;-64
2022/11/25 06:10:41;;;;;;;40.83;23.75;;;;;;;1.40;100.00;100721.00;5068463;28;20036;-64
2022/11/25 06:13:07;;;;;;;45.53;26.23;;;;;;;1.42;100.00;100732.38;5067956;28;20028;-64
2022/11/25 06:15:41;;;;;;;48.45;26.25;;;;;;;1.32;100.00;100710.78;5067604;28;20033;-64
2022/11/25 06:18:06;;;;;;;51.30;29.13;;;;;;;1.41;100.00;100731.53;5068163;28;20020;-64
2022/11/25 06:20:32;;;;;;;52.22;27.17;;;;;;;1.41;100.00;100735.94;5068135;28;20480;-64
2022/11/25 06:22:58;;;;;;;48.13;27.02;;;;;;;1.41;100.00;100744.72;5067265;28;20138;-64
2022/11/25 06:25:24;;;;;;;45.80;26.40;;;;;;;1.40;100.00;100748.31;5066617;28;20119;-63
2022/11/25 06:27:50;;;;;;;49.10;26.42;;;;;;;1.34;100.00;100743.28;5056781;28;20036;-64
2022/11/25 06:30:15;;;;;;;47.53;26.65;;;;;;;1.34;100.00;100751.22;5067991;28;20035;-64
2022/11/25 06:32:41;;;;;;;47.38;26.35;;;;;;;1.29;100.00;100752.34;5068060;28;20025;-65
2022/11/25 06:35:07;;;;;;;44.58;25.60;;;;;;;1.33;100.00;100760.06;5071802;28;20039;-65
2022/11/25 06:37:33;;;;;;;46.33;26.83;;;;;;;1.30;100.00;100762.84;5071992;28;20033;-70
2022/11/25 06:39:58;;;;;;;48.67;26.35;;;;;;;1.32;100.00;100776.81;5070826;28;20035;-70
2022/11/25 06:42:24;;;;;;;46.13;26.45;;;;;;;1.29;100.00;100771.66;5070322;28;20034;-70
2022/11/25 06:44:49;;;;;;;45.70;25.63;;;;;;;1.25;100.00;100761.28;5071604;28;20048;-70
2022/11/25 06:47:15;;;;;;;47.28;27.50;;;;;;;1.34;100.00;100782.03;5071668;28;20498;-71
2022/11/25 06:49:40;;;;;;;45.08;25.10;;;;;;;1.28;100.00;100762.03;5070513;28;20477;-71
2022/11/25 06:52:06;;;;;;;45.88;27.25;;;;;;;1.34;100.00;100774.13;5071306;28;20471;-71
2022/11/25 06:54:32;;;;;;;47.28;27.30;;;;;;;1.38;100.00;100773.06;5071804;28;20036;-71
2022/11/25 06:56:57;;;;;;;46.63;25.58;;;;;;;1.33;100.00;100770.66;5071709;28;20035;-71
2022/11/25 06:59:23;;;;;;;45.22;25.17;;;;;;;1.40;100.00;100777.38;5067330;28;20023;-71
2022/11/25 07:01:48;;;;;;;50.15;26.95;;;;;;;1.43;100.00;100776.38;5069390;28;20020;-71
2022/11/25 07:04:14;;;;;;;49.60;27.40;;;;;;;1.44;100.00;100776.31;5068001;28;20476;-71
2022/11/25 07:06:39;;;;;;;53.45;28.67;;;;;;;1.46;100.00;100782.41;5071770;28;20041;-73
2022/11/25 07:09:05;;;;;;;59.75;30.45;;;;;;;1.53;100.00;100791.78;5071774;28;20071;-71
2022/11/25 07:11:36;;;;;;;64.00;32.25;;;;;;;1.57;100.00;100788.06;5070221;28;20048;-71
2022/11/25 07:14:05;;;;;;;59.85;30.85;;;;;;;1.62;100.00;100787.88;5057942;28;20396;-71
2022/11/25 07:16:32;;;;;;;59.70;31.80;;;;;;;1.63;100.00;100782.50;5063095;28;20112;-71
2022/11/25 07:19:00;;;;;;;59.17;32.17;;;;;;;1.70;100.00;100794.53;5053309;28;20040;-71
2022/11/25 07:21:26;;;;;;;60.53;33.42;;;;;;;1.79;100.00;100795.91;5051954;28;20067;-71
2022/11/25 07:23:52;;;;;;;65.93;34.47;;;;;;;1.86;100.00;100797.34;5052179;28;20116;-71
2022/11/25 07:26:21;;;;;;;82.32;37.28;;;;;;;1.93;100.00;100799.66;5051663;28;20033;-72
2022/11/25 07:28:47;;;;;;;72.85;37.90;;;;;;;2.04;100.00;100799.16;5052195;28;20079;-72
2022/11/25 07:31:17;;;;;;;67.18;36.08;;;;;;;2.15;100.00;100804.81;5052359;28;20025;-72
2022/11/25 07:33:43;;;;;;;58.85;32.55;;;;;;;2.30;100.00;100814.72;5053086;28;20032;-72
2022/11/25 07:36:11;;;;;;;56.92;32.72;;;;;;;2.37;100.00;100808.19;5056798;28;20094;-71
2022/11/25 07:38:37;;;;;;;66.57;36.95;;;;;;;2.47;100.00;100813.91;5059524;28;20475;-71
2022/11/25 07:41:11;;;;;;;61.75;33.90;;;;;;;2.54;100.00;100815.34;5057918;28;20992;-72
2022/11/25 07:43:37;;;;;;;64.75;34.58;;;;;;;2.60;100.00;100823.84;5058821;28;20033;-72
2022/11/25 07:46:16;;;;;;;63.83;34.08;;;;;;;2.70;100.00;100821.66;5071290;28;20799;-72
2022/11/25 07:48:43;;;;;;;58.92;33.50;;;;;;;2.77;100.00;100821.25;5060578;28;20390;-72
2022/11/25 07:51:32;;;;;;;57.63;32.03;;;;;;;2.86;100.00;100827.91;5062081;28;20016;-72
2022/11/25 07:53:59;;;;;;;60.15;33.25;;;;;;;2.94;100.00;100825.75;5060977;28;20423;-72
2022/11/25 07:56:26;;;;;;;55.28;32.15;;;;;;;2.94;100.00;100809.84;5051263;28;20564;-72
2022/11/25 07:58:52;;;;;;;60.10;31.98;;;;;;;3.07;100.00;100829.50;5062800;28;20063;-72
2022/11/25 08:01:18;;;;;;;61.33;32.65;;;;;;;3.15;100.00;100830.84;5056867;28;20044;-71
2022/11/25 08:03:46;;;;;;;62.85;34.30;;;;;;;3.16;100.00;100816.66;5063944;28;20039;-72
2022/11/25 08:06:16;;;;;;;57.28;31.60;;;;;;;3.31;100.00;100823.00;5064326;28;20087;-71
2022/11/25 08:08:42;;;;;;;56.88;31.65;;;;;;;3.35;100.00;100817.47;5055674;28;20522;-71
2022/11/25 08:11:17;;;;;;;59.50;32.03;;;;;;;3.45;100.00;100828.47;5068051;28;20029;-71
2022/11/25 08:13:43;;;;;;;61.45;31.70;;;;;;;3.52;100.00;100827.22;5059287;28;20059;-71
2022/11/25 08:16:11;;;;;;;63.92;32.28;;;;;;;3.57;100.00;100830.47;5058305;28;20445;-72
2022/11/25 08:18:37;;;;;;;63.55;35.45;;;;;;;3.63;100.00;100832.81;5050951;28;20029;-72
2022/11/25 08:21:05;;;;;;;65.65;35.55;;;;;;;3.71;100.00;100833.31;5058786;28;20155;-71
2022/11/25 08:23:31;;;;;;;60.88;33.55;;;;;;;3.69;100.00;100830.72;5057933;28;20036;-72
2022/11/25 08:26:01;;;;;;;57.35;32.65;;;;;;;3.82;100.00;100834.47;5059357;28;20477;-72
2022/11/25 08:28:27;;;;;;;62.45;36.08;;;;;;;3.83;100.00;100835.28;5060258;28;20383;-72
2022/11/25 08:31:01;;;;;;;66.20;36.75;;;;;;;3.95;100.00;100842.63;5067617;28;20029;-72
2022/11/25 08:33:26;;;;;;;;;;;;;;;3.99;100.00;100847.69;5069435;28;20500;-72
2022/11/25 08:35:53;;;;;;;61.33;33.90;;;;;;;4.01;100.00;100837.00;5069366;28;20007;-72
2022/11/25 08:38:18;;;;;;;65.32;37.42;;;;;;;4.08;100.00;100841.91;5065419;28;20028;-72
2022/11/25 08:40:44;;;;;;;63.33;35.08;;;;;;;4.13;100.00;100853.13;5068166;28;20028;-72
2022/11/25 08:43:09;;;;;;;66.50;36.25;;;;;;;4.16;100.00;100852.97;5067766;28;20036;-73
2022/11/25 08:45:35;;;;;;;62.63;35.90;;;;;;;4.24;100.00;100861.38;5063262;28;20501;-73
2022/11/25 08:48:00;;;;;;;62.13;35.70;;;;;;;4.25;100.00;100854.25;5059056;28;20028;-73
2022/11/25 08:50:26;;;;;;;62.42;35.88;;;;;;;4.35;100.00;100861.66;5055369;28;20029;-73
2022/11/25 08:52:51;;;;;;;70.57;39.10;;;;;;;4.36;100.00;100858.06;5050402;28;20028;-73
2022/11/25 08:55:16;;;;;;;74.32;39.03;;;;;;;4.45;100.00;100864.69;5055214;28;20031;-73
2022/11/25 08:57:42;;;;;;;77.47;41.88;;;;;;;4.46;100.00;100853.97;5059591;28;20075;-74
2022/11/25 09:00:08;;;;;;;90.90;45.60;;;;;;;4.49;100.00;100856.44;5062373;28;20051;-73
2022/11/25 09:02:33;;;;;;;79.45;43.97;;;;;;;4.57;100.00;100858.69;5070065;28;20039;-73
2022/11/25 09:04:59;;;;;;;80.35;42.40;;;;;;;4.61;100.00;100863.75;5053810;28;20033;-72
2022/11/25 09:07:24;;;;;;;74.70;41.28;;;;;;;4.66;100.00;100874.13;5069400;28;20035;-73
2022/11/25 09:09:50;;;;;;;72.40;39.38;;;;;;;4.69;100.00;100869.53;5069960;28;20036;-73
2022/11/25 09:12:15;;;;;;;67.53;36.47;;;;;;;4.59;100.00;100847.03;5068409;28;20037;-74
2022/11/25 09:14:41;;;;;;;70.03;36.30;;;;;;;4.68;100.00;100867.78;5069469;28;20017;-73
2022/11/25 09:17:11;;;;;;;66.15;35.08;;;;;;;4.69;100.00;100860.69;5069223;28;20067;-74
2022/11/25 09:19:36;;;;;;;62.97;35.28;;;;;;;4.74;100.00;100869.25;5069877;28;20109;-74
2022/11/25 09:22:02;;;;;;;64.45;32.20;;;;;;;4.82;100.00;100879.47;5070100;28;20440;-73
2022/11/25 09:24:28;;;;;;;65.60;35.03;;;;;;;4.81;100.00;100880.41;5068219;28;20115;-73
2022/11/25 09:26:53;;;;;;;65.15;33.60;;;;;;;4.86;100.00;100883.69;5069827;28;20090;-72
2022/11/25 09:29:19;;;;;;;67.97;35.30;;;;;;;4.89;100.00;100883.47;5069301;28;20035;-72
2022/11/25 09:31:44;;;;;;;63.53;34.42;;;;;;;4.90;100.00;100875.44;5069536;28;20036;-73
2022/11/25 09:34:10;;;;;;;69.63;33.50;;;;;;;4.89;100.00;100862.22;5069571;28;20035;-73
2022/11/25 09:36:35;;;;;;;63.60;34.10;;;;;;;4.94;100.00;100862.84;5069626;28;20020;-73
2022/11/25 09:39:01;;;;;;;59.83;32.83;;;;;;;4.96;100.00;100858.31;5069581;28;20063;-72
2022/11/25 09:48:05;;;;;;;63.00;32.83;;;;;;;5.13;100.00;100855.53;5067231;28;20082;-72
2022/11/25 09:50:43;;;;;;;71.45;35.10;;;;;;;5.15;100.00;100859.81;5066549;28;20035;-72
2022/11/25 09:53:08;;;;;;;59.92;31.77;;;;;;;5.19;100.00;100865.84;5067752;28;20028;-72
2022/11/25 09:55:38;;;;;;;62.05;34.03;;;;;;;5.14;100.00;100854.59;5059909;28;20393;-72
2022/11/25 09:58:49;;;;;;;62.80;31.90;;;;;;;5.17;100.00;100863.25;5068147;28;20035;-72
2022/11/25 10:01:20;;;;;;;59.10;31.63;;;;;;;5.24;100.00;100866.41;5004097;28;20038;-72
2022/11/25 10:03:52;;;;;;;64.28;33.05;;;;;;;5.28;100.00;100862.63;5002775;28;20053;-72
2022/11/25 10:06:22;;;;;;;65.57;35.35;;;;;;;5.25;100.00;100855.69;5037345;28;20054;-72
2022/11/25 10:09:01;;;;;;;66.10;35.97;;;;;;;5.41;100.00;100850.31;5068981;28;20035;-72
2022/11/25 10:11:44;;;;;;;67.72;34.65;;;;;;;5.44;100.00;100853.69;5063374;28;20036;-72
2022/11/25 10:14:14;;;;;;;56.20;32.05;;;;;;;5.45;100.00;100859.88;5062980;28;20040;-72
2022/11/25 10:16:50;;;;;;;62.38;32.17;;;;;;;5.55;100.00;100861.03;5068930;28;20032;-72
2022/11/25 10:19:23;;;;;;;53.45;29.65;;;;;;;5.55;100.00;100859.22;5065416;28;20028;-72
2022/11/25 10:21:49;;;;;;;57.45;30.33;;;;;;;5.55;100.00;100853.06;5064563;28;20077;-71
2022/11/25 10:24:20;;;;;;;54.83;29.77;;;;;;;5.59;100.00;100854.59;5064948;28;20039;-72
2022/11/25 10:26:57;;;;;;;57.47;30.63;;;;;;;5.64;100.00;100856.03;5061140;28;20025;-72
2022/11/25 10:29:26;;;;;;;51.63;28.13;;;;;;;5.65;100.00;100855.09;5049019;28;20029;-72
2022/11/25 10:32:00;;;;;;;63.72;30.15;;;;;;;5.71;100.00;100852.03;5049163;28;20039;-71
2022/11/25 10:34:59;;;;;;;54.42;28.63;;;;;;;5.85;100.00;100852.13;5049570;28;20020;-72
2022/11/25 10:37:32;;;;;;;51.28;27.15;;;;;;;5.87;100.00;100862.69;5058821;28;20033;-71
2022/11/25 10:39:57;;;;;;;55.83;28.50;;;;;;;5.84;100.00;100854.88;5067002;28;20049;-71
2022/11/25 10:42:25;;;;;;;53.47;29.00;;;;;;;5.93;100.00;100863.16;5067609;28;20043;-71
2022/11/25 10:44:53;;;;;;;54.78;29.92;;;;;;;5.94;100.00;100867.53;5066380;28;20127;-72
2022/11/25 10:47:33;;;;;;;54.33;30.73;;;;;;;6.06;100.00;100866.78;5065331;28;20051;-71
2022/11/25 10:50:04;;;;;;;54.95;28.42;;;;;;;6.12;100.00;100863.75;5065392;28;20035;-70
2022/11/25 10:52:39;;;;;;;50.88;29.23;;;;;;;6.06;100.00;100856.16;5067260;28;20032;-71
2022/11/25 10:55:26;;;;;;;50.97;28.00;;;;;;;6.13;100.00;100860.16;5054301;28;20025;-71
2022/11/25 10:57:52;;;;;;;52.40;27.27;;;;;;;6.16;100.00;100865.28;5060451;28;20070;-71
2022/11/25 11:00:37;;;;;;;47.55;25.70;;;;;;;6.27;98.80;100856.66;5051821;28;20030;-70
2022/11/25 11:03:22;;;;;;;63.40;35.28;;;;;;;6.25;99.60;100839.88;5055046;28;20388;-72
2022/11/25 11:05:50;;;;;;;59.08;30.48;;;;;;;6.31;100.00;100860.81;5057125;28;20441;-71
2022/11/25 11:08:37;;;;;;;48.08;27.67;;;;;;;6.31;100.00;100850.16;5064694;28;20095;-72
2022/11/25 11:11:16;;;;;;;49.33;26.85;;;;;;;6.34;100.00;100850.84;5046914;28;20061;-71
2022/11/25 11:13:43;;;;;;;48.40;28.17;;;;;;;6.31;99.57;100848.38;5059111;28;20083;-71
2022/11/25 11:16:38;;;;;;;48.60;27.38;;;;;;;6.40;99.65;100868.25;5059718;28;20020;-71
2022/11/25 11:19:05;;;;;;;48.88;26.02;;;;;;;6.51;98.04;100863.09;5056886;28;20025;-71
2022/11/25 11:21:33;;;;;;;51.13;27.73;;;;;;;6.51;98.11;100865.75;5051235;28;20029;-71
2022/11/25 11:24:00;;;;;;;49.83;26.63;;;;;;;6.53;98.17;100863.88;5051039;28;20052;-70
2022/11/25 11:26:32;;;;;;;45.72;25.73;;;;;;;6.58;98.83;100877.78;5052091;28;20032;-71
2022/11/25 11:29:14;;;;;;;47.25;26.90;;;;;;;6.60;98.56;100875.84;5051908;28;20024;-71